Piuma, Brazil
Current Conditions -  °F | °C
As of 3:00 PM on Thursday 23 Oct 2014 (Local Time) from SBVT Reporting Station
Broken Clouds Broken Clouds  
Wind Chill: 75°   Ceiling: 4500
Heat Index: 75°   Visibility: 6mi
Dew Point: 61°   Wind: 9mph
Humidity: 61%   Direction: 160°SSE
Pressure: 30.09"   Gusts: NA
Location:  20.84°S, 40.72°W
Report Text: SBVT 231700Z 16008KT 9999 FEW028 BKN045 24/16 Q1019
Loading
Personal Weather Stations






























Interactive Weather Map
Tropical Storm Tracking
New forecast layout! Learn more

10-Day Weather Forecast

Advertisements
Track Severe Weather on mobile